sensor_id;sensor_type;location;lat;lon;timestamp;pressure;altitude;pressure_sealevel;temperature;humidity
57114;BME280;42994;51.606;9.988;2023-02-02T00:00:52;99027.16;;;2.69;100.00
57114;BME280;42994;51.606;9.988;2023-02-02T00:03:19;99037.31;;;2.64;100.00
57114;BME280;42994;51.606;9.988;2023-02-02T00:05:46;99033.28;;;2.69;100.00
57114;BME280;42994;51.606;9.988;2023-02-02T00:08:14;99032.47;;;2.69;100.00
57114;BME280;42994;51.606;9.988;2023-02-02T00:10:41;99035.78;;;2.71;100.00
57114;BME280;42994;51.606;9.988;2023-02-02T00:13:09;99037.03;;;2.77;100.00
57114;BME280;42994;51.606;9.988;2023-02-02T00:15:38;99039.56;;;2.78;100.00
57114;BME280;42994;51.606;9.988;2023-02-02T00:18:05;99046.53;;;2.79;100.00
57114;BME280;42994;51.606;9.988;2023-02-02T00:20:32;99040.13;;;2.72;100.00
57114;BME280;42994;51.606;9.988;2023-02-02T00:23:00;99048.88;;;2.73;100.00
57114;BME280;42994;51.606;9.988;2023-02-02T00:25:26;99048.88;;;2.73;100.00
57114;BME280;42994;51.606;9.988;2023-02-02T00:27:53;99051.94;;;2.68;100.00
57114;BME280;42994;51.606;9.988;2023-02-02T00:30:21;99056.69;;;2.64;100.00
57114;BME280;42994;51.606;9.988;2023-02-02T00:32:49;99052.66;;;2.80;100.00
57114;BME280;42994;51.606;9.988;2023-02-02T00:35:18;99053.34;;;2.72;100.00
57114;BME280;42994;51.606;9.988;2023-02-02T00:37:44;99044.28;;;2.75;100.00
57114;BME280;42994;51.606;9.988;2023-02-02T00:40:11;99041.09;;;2.71;100.00
57114;BME280;42994;51.606;9.988;2023-02-02T00:42:38;99043.72;;;2.71;100.00
57114;BME280;42994;51.606;9.988;2023-02-02T00:45:05;99046.38;;;2.71;100.00
57114;BME280;42994;51.606;9.988;2023-02-02T00:47:41;99040.13;;;2.72;100.00
57114;BME280;42994;51.606;9.988;2023-02-02T00:50:11;99052.09;;;2.76;100.00
57114;BME280;42994;51.606;9.988;2023-02-02T00:52:38;99045.41;;;2.72;100.00
57114;BME280;42994;51.606;9.988;2023-02-02T00:55:06;99046.38;;;2.71;100.00
57114;BME280;42994;51.606;9.988;2023-02-02T00:57:33;99057.38;;;2.76;100.00
57114;BME280;42994;51.606;9.988;2023-02-02T01:00:00;99055.28;;;2.80;100.00
57114;BME280;42994;51.606;9.988;2023-02-02T01:02:26;99066.31;;;2.85;100.00
57114;BME280;42994;51.606;9.988;2023-02-02T01:04:53;99062.66;;;2.86;100.00
57114;BME280;42994;51.606;9.988;2023-02-02T01:07:21;99062.41;;;2.79;100.00
57114;BME280;42994;51.606;9.988;2023-02-02T01:09:48;99059.31;;;2.84;100.00
57114;BME280;42994;51.606;9.988;2023-02-02T01:12:15;99066.84;;;2.79;100.00
57114;BME280;42994;51.606;9.988;2023-02-02T01:14:41;99073.28;;;2.76;100.00
57114;BME280;42994;51.606;9.988;2023-02-02T01:17:08;99072.28;;;2.87;100.00
57114;BME280;42994;51.606;9.988;2023-02-02T01:19:35;99077.59;;;2.87;100.00
57114;BME280;42994;51.606;9.988;2023-02-02T01:22:02;99078.41;;;2.87;100.00
57114;BME280;42994;51.606;9.988;2023-02-02T01:24:30;99084.28;;;2.81;100.00
57114;BME280;42994;51.606;9.988;2023-02-02T01:26:57;99071.72;;;2.83;100.00
57114;BME280;42994;51.606;9.988;2023-02-02T01:29:23;99083.28;;;2.92;100.00
57114;BME280;42994;51.606;9.988;2023-02-02T01:31:50;99082.19;;;2.85;100.00
57114;BME280;42994;51.606;9.988;2023-02-02T01:34:17;99085.09;;;2.92;100.00
57114;BME280;42994;51.606;9.988;2023-02-02T01:36:43;99090.66;;;2.98;100.00
57114;BME280;42994;51.606;9.988;2023-02-02T01:39:10;99089.13;;;2.86;100.00
57114;BME280;42994;51.606;9.988;2023-02-02T01:41:39;99096.94;;;2.87;100.00
57114;BME280;42994;51.606;9.988;2023-02-02T01:47:11;99108.78;;;2.83;100.00
57114;BME280;42994;51.606;9.988;2023-02-02T01:49:39;99113.53;;;2.89;100.00
57114;BME280;42994;51.606;9.988;2023-02-02T01:52:06;99105.56;;;2.89;100.00
57114;BME280;42994;51.606;9.988;2023-02-02T01:54:38;99108.50;;;2.86;100.00
57114;BME280;42994;51.606;9.988;2023-02-02T01:57:10;99118.53;;;2.93;100.00
57114;BME280;42994;51.606;9.988;2023-02-02T01:59:39;99112.97;;;2.96;100.00
57114;BME280;42994;51.606;9.988;2023-02-02T02:02:07;99108.91;;;2.92;100.00
57114;BME280;42994;51.606;9.988;2023-02-02T02:04:33;99113.25;;;2.93;100.00
57114;BME280;42994;51.606;9.988;2023-02-02T02:07:01;99116.59;;;2.95;100.00
57114;BME280;42994;51.606;9.988;2023-02-02T02:09:29;99123.72;;;2.94;100.00
57114;BME280;42994;51.606;9.988;2023-02-02T02:11:56;99120.63;;;2.89;100.00
57114;BME280;42994;51.606;9.988;2023-02-02T02:14:24;99121.31;;;2.91;100.00
57114;BME280;42994;51.606;9.988;2023-02-02T02:17:27;99105.03;;;2.96;100.00
57114;BME280;42994;51.606;9.988;2023-02-02T02:20:21;99112.56;;;2.91;100.00
57114;BME280;42994;51.606;9.988;2023-02-02T02:26:45;99131.22;;;2.89;100.00
57114;BME280;42994;51.606;9.988;2023-02-02T02:29:47;99132.91;;;3.00;100.00
57114;BME280;42994;51.606;9.988;2023-02-02T02:32:33;99133.31;;;3.05;100.00
57114;BME280;42994;51.606;9.988;2023-02-02T02:35:09;99123.69;;;3.04;100.00
57114;BME280;42994;51.606;9.988;2023-02-02T02:37:42;99120.63;;;2.99;100.00
57114;BME280;42994;51.606;9.988;2023-02-02T02:42:48;99142.38;;;2.93;100.00
57114;BME280;42994;51.606;9.988;2023-02-02T02:45:18;99139.72;;;3.02;100.00
57114;BME280;42994;51.606;9.988;2023-02-02T02:47:47;99141.41;;;3.03;100.00
57114;BME280;42994;51.606;9.988;2023-02-02T02:50:15;99137.50;;;2.98;100.00
57114;BME280;42994;51.606;9.988;2023-02-02T02:52:42;99145.59;;;2.96;100.00
57114;BME280;42994;51.606;9.988;2023-02-02T02:55:12;99143.50;;;3.00;100.00
57114;BME280;42994;51.606;9.988;2023-02-02T02:57:45;99146.28;;;2.98;100.00
57114;BME280;42994;51.606;9.988;2023-02-02T03:00:29;99137.06;;;3.02;100.00
57114;BME280;42994;51.606;9.988;2023-02-02T03:03:04;99137.63;;;3.06;100.00
57114;BME280;42994;51.606;9.988;2023-02-02T03:05:38;99142.91;;;3.06;100.00
57114;BME280;42994;51.606;9.988;2023-02-02T03:08:12;99149.91;;;3.07;100.00
57114;BME280;42994;51.606;9.988;2023-02-02T03:10:43;99143.34;;;3.01;100.00
57114;BME280;42994;51.606;9.988;2023-02-02T03:13:12;99147.78;;;3.01;100.00
57114;BME280;42994;51.606;9.988;2023-02-02T03:15:40;99147.78;;;3.01;100.00
57114;BME280;42994;51.606;9.988;2023-02-02T03:18:08;99158.13;;;3.04;100.00
57114;BME280;42994;51.606;9.988;2023-02-02T03:20:35;99152.00;;;3.03;100.00
57114;BME280;42994;51.606;9.988;2023-02-02T03:23:02;99157.44;;;3.02;100.00
57114;BME280;42994;51.606;9.988;2023-02-02T03:25:28;99153.50;;;3.06;100.00
57114;BME280;42994;51.606;9.988;2023-02-02T03:27:55;99150.16;;;3.04;100.00
57114;BME280;42994;51.606;9.988;2023-02-02T03:30:23;99161.03;;;3.01;100.00
57114;BME280;42994;51.606;9.988;2023-02-02T03:32:51;99156.88;;;2.98;100.00
57114;BME280;42994;51.606;9.988;2023-02-02T03:35:19;99157.00;;;2.97;100.00
57114;BME280;42994;51.606;9.988;2023-02-02T03:37:46;99157.00;;;2.97;100.00
57114;BME280;42994;51.606;9.988;2023-02-02T03:40:13;99155.47;;;3.04;100.00
57114;BME280;42994;51.606;9.988;2023-02-02T03:42:40;99157.56;;;3.00;100.00
57114;BME280;42994;51.606;9.988;2023-02-02T03:45:08;99155.19;;;2.97;100.00
57114;BME280;42994;51.606;9.988;2023-02-02T03:47:35;99153.38;;;2.98;100.00
57114;BME280;42994;51.606;9.988;2023-02-02T03:50:01;99154.06;;;2.90;100.00
57114;BME280;42994;51.606;9.988;2023-02-02T03:52:29;99160.47;;;2.97;100.00
57114;BME280;42994;51.606;9.988;2023-02-02T03:54:56;99158.94;;;2.95;100.00
57114;BME280;42994;51.606;9.988;2023-02-02T03:57:22;99156.03;;;2.98;100.00
57114;BME280;42994;51.606;9.988;2023-02-02T03:59:49;99159.09;;;2.93;100.00
57114;BME280;42994;51.606;9.988;2023-02-02T04:02:16;99156.16;;;2.96;100.00
57114;BME280;42994;51.606;9.988;2023-02-02T04:04:42;99161.59;;;2.95;100.00
57114;BME280;42994;51.606;9.988;2023-02-02T04:07:09;99156.31;;;2.95;100.00
57114;BME280;42994;51.606;9.988;2023-02-02T04:09:37;99164.25;;;2.95;100.00
57114;BME280;42994;51.606;9.988;2023-02-02T04:12:03;99160.91;;;2.93;100.00
57114;BME280;42994;51.606;9.988;2023-02-02T04:14:30;99170.25;;;2.87;100.00
57114;BME280;42994;51.606;9.988;2023-02-02T04:17:03;99174.97;;;2.83;100.00
57114;BME280;42994;51.606;9.988;2023-02-02T04:19:30;99175.81;;;2.84;100.00
57114;BME280;42994;51.606;9.988;2023-02-02T04:21:56;99169.94;;;2.80;100.00
57114;BME280;42994;51.606;9.988;2023-02-02T04:24:23;99169.38;;;2.77;100.00
57114;BME280;42994;51.606;9.988;2023-02-02T04:26:51;99169.25;;;2.78;100.00
57114;BME280;42994;51.606;9.988;2023-02-02T04:29:18;99166.75;;;2.77;100.00
57114;BME280;42994;51.606;9.988;2023-02-02T04:31:44;99177.75;;;2.82;100.00
57114;BME280;42994;51.606;9.988;2023-02-02T04:34:11;99172.88;;;2.77;100.00
57114;BME280;42994;51.606;9.988;2023-02-02T04:36:37;99168.97;;;2.72;100.00
57114;BME280;42994;51.606;9.988;2023-02-02T04:39:04;99177.59;;;2.74;100.00
57114;BME280;42994;51.606;9.988;2023-02-02T04:41:31;99175.13;;;2.72;100.00
57114;BME280;42994;51.606;9.988;2023-02-02T04:43:59;99179.53;;;2.72;100.00
57114;BME280;42994;51.606;9.988;2023-02-02T04:46:25;99171.59;;;2.72;100.00
57114;BME280;42994;51.606;9.988;2023-02-02T04:48:53;99176.06;;;2.71;100.00
57114;BME280;42994;51.606;9.988;2023-02-02T04:51:19;99179.28;;;2.65;100.00
57114;BME280;42994;51.606;9.988;2023-02-02T04:53:46;99182.88;;;2.74;100.00
57114;BME280;42994;51.606;9.988;2023-02-02T04:56:14;99176.78;;;2.73;100.00
57114;BME280;42994;51.606;9.988;2023-02-02T04:58:42;99186.09;;;2.77;100.00
57114;BME280;42994;51.606;9.988;2023-02-02T05:01:13;99191.56;;;2.76;100.00
57114;BME280;42994;51.606;9.988;2023-02-02T05:03:40;99184.00;;;2.71;100.00
57114;BME280;42994;51.606;9.988;2023-02-02T05:06:07;99176.91;;;2.72;100.00
57114;BME280;42994;51.606;9.988;2023-02-02T05:08:35;99180.41;;;2.72;100.00
57114;BME280;42994;51.606;9.988;2023-02-02T05:11:05;99183.44;;;2.77;100.00
57114;BME280;42994;51.606;9.988;2023-02-02T05:13:32;99187.91;;;2.77;100.00
57114;BME280;42994;51.606;9.988;2023-02-02T05:15:59;99197.41;;;2.79;100.00
57114;BME280;42994;51.606;9.988;2023-02-02T05:18:28;99191.97;;;2.81;100.00
57114;BME280;42994;51.606;9.988;2023-02-02T05:20:58;99199.22;;;2.79;100.00
57114;BME280;42994;51.606;9.988;2023-02-02T05:23:25;99198.63;;;2.75;100.00
57114;BME280;42994;51.606;9.988;2023-02-02T05:25:52;99199.34;;;2.77;100.00
57114;BME280;42994;51.606;9.988;2023-02-02T05:28:19;99199.50;;;2.76;100.00
57114;BME280;42994;51.606;9.988;2023-02-02T05:30:46;99207.00;;;2.80;100.00
57114;BME280;42994;51.606;9.988;2023-02-02T05:33:13;99206.31;;;2.78;100.00
57114;BME280;42994;51.606;9.988;2023-02-02T05:35:45;99199.91;;;2.81;100.00
57114;BME280;42994;51.606;9.988;2023-02-02T05:38:11;99201.84;;;2.79;100.00
57114;BME280;42994;51.606;9.988;2023-02-02T05:40:38;99202.72;;;2.79;100.00
57114;BME280;42994;51.606;9.988;2023-02-02T05:43:05;99202.41;;;2.82;100.00
57114;BME280;42994;51.606;9.988;2023-02-02T05:45:33;99208.53;;;2.83;100.00
57114;BME280;42994;51.606;9.988;2023-02-02T05:48:02;99201.59;;;2.82;100.00
57114;BME280;42994;51.606;9.988;2023-02-02T05:50:29;99208.41;;;2.84;100.00
57114;BME280;42994;51.606;9.988;2023-02-02T05:53:04;99202.41;;;2.82;100.00
57114;BME280;42994;51.606;9.988;2023-02-02T05:55:31;99208.28;;;2.86;100.00
57114;BME280;42994;51.606;9.988;2023-02-02T05:57:57;99212.19;;;2.92;100.00
57114;BME280;42994;51.606;9.988;2023-02-02T06:00:24;99217.59;;;2.90;100.00
57114;BME280;42994;51.606;9.988;2023-02-02T06:02:51;99216.66;;;2.91;100.00
57114;BME280;42994;51.606;9.988;2023-02-02T06:05:17;99202.44;;;2.92;100.00
57114;BME280;42994;51.606;9.988;2023-02-02T06:07:44;99210.94;;;2.96;100.00
57114;BME280;42994;51.606;9.988;2023-02-02T06:10:15;99220.00;;;2.93;100.00
57114;BME280;42994;51.606;9.988;2023-02-02T06:13:02;99216.38;;;2.94;100.00
57114;BME280;42994;51.606;9.988;2023-02-02T06:15:29;99216.09;;;2.97;100.00
57114;BME280;42994;51.606;9.988;2023-02-02T06:18:02;99219.28;;;3.01;100.00
57114;BME280;42994;51.606;9.988;2023-02-02T06:20:33;99227.94;;;3.03;100.00
57114;BME280;42994;51.606;9.988;2023-02-02T06:23:00;99223.63;;;3.02;100.00
57114;BME280;42994;51.606;9.988;2023-02-02T06:25:28;99226.84;;;3.05;100.00
57114;BME280;42994;51.606;9.988;2023-02-02T06:27:55;99231.56;;;3.02;100.00
57114;BME280;42994;51.606;9.988;2023-02-02T06:30:22;99232.28;;;3.04;100.00
57114;BME280;42994;51.606;9.988;2023-02-02T06:32:54;99235.19;;;3.01;100.00
57114;BME280;42994;51.606;9.988;2023-02-02T06:35:24;99235.31;;;2.99;100.00
57114;BME280;42994;51.606;9.988;2023-02-02T06:37:50;99230.88;;;3.00;100.00
57114;BME280;42994;51.606;9.988;2023-02-02T06:40:17;99238.53;;;3.03;100.00
57114;BME280;42994;51.606;9.988;2023-02-02T06:42:45;99232.53;;;3.01;100.00
57114;BME280;42994;51.606;9.988;2023-02-02T06:45:12;99236.59;;;3.05;100.00
57114;BME280;42994;51.606;9.988;2023-02-02T06:47:38;99237.69;;;3.02;100.00
57114;BME280;42994;51.606;9.988;2023-02-02T06:50:05;99238.53;;;3.03;100.00
57114;BME280;42994;51.606;9.988;2023-02-02T06:52:33;99244.13;;;3.00;100.00
57114;BME280;42994;51.606;9.988;2023-02-02T06:54:59;99250.09;;;2.92;100.00
57114;BME280;42994;51.606;9.988;2023-02-02T06:58:16;99250.50;;;2.87;100.00
57114;BME280;42994;51.606;9.988;2023-02-02T07:00:42;99249.09;;;2.83;100.00
57114;BME280;42994;51.606;9.988;2023-02-02T07:03:09;99253.00;;;2.79;100.00
57114;BME280;42994;51.606;9.988;2023-02-02T07:05:35;99253.84;;;2.80;100.00
57114;BME280;42994;51.606;9.988;2023-02-02T07:08:03;99255.66;;;2.79;100.00
57114;BME280;42994;51.606;9.988;2023-02-02T07:10:30;99271.53;;;2.79;100.00
57114;BME280;42994;51.606;9.988;2023-02-02T07:12:57;99285.16;;;2.75;100.00
57114;BME280;42994;51.606;9.988;2023-02-02T07:15:25;99277.63;;;2.70;100.00
57114;BME280;42994;51.606;9.988;2023-02-02T07:17:53;99283.19;;;2.67;100.00
57114;BME280;42994;51.606;9.988;2023-02-02T07:20:19;99302.97;;;2.63;100.00
57114;BME280;42994;51.606;9.988;2023-02-02T07:22:46;99292.78;;;2.58;100.00
57114;BME280;42994;51.606;9.988;2023-02-02T07:25:13;99312.66;;;2.53;100.00
57114;BME280;42994;51.606;9.988;2023-02-02T07:27:40;99305.00;;;2.49;100.00
57114;BME280;42994;51.606;9.988;2023-02-02T07:30:08;99297.72;;;2.42;100.00
57114;BME280;42994;51.606;9.988;2023-02-02T07:32:36;99307.47;;;2.41;100.00
57114;BME280;42994;51.606;9.988;2023-02-02T07:35:04;99309.41;;;2.39;100.00
57114;BME280;42994;51.606;9.988;2023-02-02T07:37:30;99298.09;;;2.37;100.00
57114;BME280;42994;51.606;9.988;2023-02-02T07:39:57;99316.03;;;2.34;100.00
57114;BME280;42994;51.606;9.988;2023-02-02T07:42:24;99326.34;;;2.27;100.00
57114;BME280;42994;51.606;9.988;2023-02-02T07:44:51;99315.06;;;2.25;100.00
57114;BME280;42994;51.606;9.988;2023-02-02T07:47:17;99311.94;;;2.20;100.00
57114;BME280;42994;51.606;9.988;2023-02-02T07:49:45;99306.78;;;2.18;100.00
57114;BME280;42994;51.606;9.988;2023-02-02T07:52:12;99315.84;;;2.16;100.00
57114;BME280;42994;51.606;9.988;2023-02-02T07:54:40;99316.09;;;2.13;100.00
57114;BME280;42994;51.606;9.988;2023-02-02T07:57:06;99318.16;;;2.09;100.00
57114;BME280;42994;51.606;9.988;2023-02-02T07:59:37;99318.97;;;2.09;100.00
57114;BME280;42994;51.606;9.988;2023-02-02T08:02:04;99327.91;;;2.08;100.00
57114;BME280;42994;51.606;9.988;2023-02-02T08:04:31;99319.50;;;2.03;100.00
57114;BME280;42994;51.606;9.988;2023-02-02T08:07:00;99314.59;;;1.99;100.00
57114;BME280;42994;51.606;9.988;2023-02-02T08:09:26;99317.53;;;1.96;100.00
57114;BME280;42994;51.606;9.988;2023-02-02T08:11:53;99328.94;;;1.96;100.00
57114;BME280;42994;51.606;9.988;2023-02-02T08:14:22;99336.72;;;1.98;100.00
57114;BME280;42994;51.606;9.988;2023-02-02T08:16:48;99332.91;;;1.90;100.00
57114;BME280;42994;51.606;9.988;2023-02-02T08:19:15;99335.03;;;1.97;100.00
57114;BME280;42994;51.606;9.988;2023-02-02T08:21:41;99335.03;;;1.97;100.00
57114;BME280;42994;51.606;9.988;2023-02-02T08:24:09;99335.91;;;1.97;100.00
57114;BME280;42994;51.606;9.988;2023-02-02T08:26:36;99339.03;;;1.91;100.00
57114;BME280;42994;51.606;9.988;2023-02-02T08:29:05;99346.97;;;1.91;100.00
57114;BME280;42994;51.606;9.988;2023-02-02T08:31:34;99336.41;;;1.91;100.00
57114;BME280;42994;51.606;9.988;2023-02-02T08:34:02;99345.56;;;1.87;100.00
57114;BME280;42994;51.606;9.988;2023-02-02T08:36:29;99341.94;;;1.88;100.00
57114;BME280;42994;51.606;9.988;2023-02-02T08:38:59;99356.97;;;1.87;100.00
57114;BME280;42994;51.606;9.988;2023-02-02T08:41:27;99346.97;;;1.91;100.00
57114;BME280;42994;51.606;9.988;2023-02-02T08:43:53;99352.06;;;1.83;100.00
57114;BME280;42994;51.606;9.988;2023-02-02T08:46:20;99359.28;;;1.81;100.00
57114;BME280;42994;51.606;9.988;2023-02-02T08:48:47;99356.31;;;1.74;100.00
57114;BME280;42994;51.606;9.988;2023-02-02T08:51:16;99362.94;;;1.68;100.00
57114;BME280;42994;51.606;9.988;2023-02-02T08:53:43;99367.94;;;1.71;100.00
57114;BME280;42994;51.606;9.988;2023-02-02T08:56:12;99368.53;;;1.75;100.00
57114;BME280;42994;51.606;9.988;2023-02-02T08:58:43;99365.06;;;1.75;100.00
57114;BME280;42994;51.606;9.988;2023-02-02T09:01:12;99376.34;;;1.77;100.00
57114;BME280;42994;51.606;9.988;2023-02-02T09:03:39;99386.34;;;1.73;100.00
57114;BME280;42994;51.606;9.988;2023-02-02T09:06:08;99386.34;;;1.73;100.00
57114;BME280;42994;51.606;9.988;2023-02-02T09:08:35;99388.03;;;1.74;100.00
57114;BME280;42994;51.606;9.988;2023-02-02T09:11:03;99386.91;;;1.77;100.00
57114;BME280;42994;51.606;9.988;2023-02-02T09:13:30;99392.72;;;1.70;100.00
57114;BME280;42994;51.606;9.988;2023-02-02T09:15:59;99394.25;;;1.73;100.00
57114;BME280;42994;51.606;9.988;2023-02-02T09:18:26;99390.06;;;1.70;100.00
57114;BME280;42994;51.606;9.988;2023-02-02T09:20:53;99401.59;;;1.69;100.00
57114;BME280;42994;51.606;9.988;2023-02-02T09:23:19;99397.88;;;1.72;100.00
57114;BME280;42994;51.606;9.988;2023-02-02T09:25:46;99400.53;;;1.72;100.00
57114;BME280;42994;51.606;9.988;2023-02-02T09:28:13;99414.56;;;1.72;100.00
57114;BME280;42994;51.606;9.988;2023-02-02T09:30:39;99411.09;;;1.72;100.00
57114;BME280;42994;51.606;9.988;2023-02-02T09:33:07;99415.41;;;1.73;100.00
57114;BME280;42994;51.606;9.988;2023-02-02T09:35:34;99412.53;;;1.76;100.00
57114;BME280;42994;51.606;9.988;2023-02-02T09:38:01;99411.94;;;1.72;100.00
57114;BME280;42994;51.606;9.988;2023-02-02T09:40:31;99414.69;;;1.71;100.00
57114;BME280;42994;51.606;9.988;2023-02-02T09:43:05;99408.47;;;1.72;100.00
57114;BME280;42994;51.606;9.988;2023-02-02T09:45:40;99414.34;;;1.76;100.00
57114;BME280;42994;51.606;9.988;2023-02-02T09:48:20;99426.56;;;1.77;100.00
57114;BME280;42994;51.606;9.988;2023-02-02T09:50:53;99429.09;;;1.78;100.00
57114;BME280;42994;51.606;9.988;2023-02-02T09:53:37;99436.19;;;1.78;100.00
57114;BME280;42994;51.606;9.988;2023-02-02T09:56:07;99428.25;;;1.78;100.00
57114;BME280;42994;51.606;9.988;2023-02-02T09:58:41;99437.00;;;1.78;100.00
57114;BME280;42994;51.606;9.988;2023-02-02T10:01:12;99437.59;;;1.82;100.00
57114;BME280;42994;51.606;9.988;2023-02-02T10:03:44;99438.44;;;1.82;100.00
57114;BME280;42994;51.606;9.988;2023-02-02T10:06:24;99447.22;;;1.83;100.00
57114;BME280;42994;51.606;9.988;2023-02-02T10:08:57;99437.38;;;1.85;100.00
57114;BME280;42994;51.606;9.988;2023-02-02T10:11:30;99440.97;;;1.84;100.00
57114;BME280;42994;51.606;9.988;2023-02-02T10:14:01;99445.41;;;1.83;100.00
57114;BME280;42994;51.606;9.988;2023-02-02T10:16:32;99453.47;;;1.82;100.00
57114;BME280;42994;51.606;9.988;2023-02-02T10:19:03;99464.03;;;1.82;100.00
57114;BME280;42994;51.606;9.988;2023-02-02T10:21:34;99472.94;;;1.81;100.00
57114;BME280;42994;51.606;9.988;2023-02-02T10:24:11;99469.31;;;1.82;100.00
57114;BME280;42994;51.606;9.988;2023-02-02T10:26:45;99472.94;;;1.81;100.00
57114;BME280;42994;51.606;9.988;2023-02-02T10:29:27;99478.84;;;1.73;100.00
57114;BME280;42994;51.606;9.988;2023-02-02T10:32:03;99475.34;;;1.72;100.00
57114;BME280;42994;51.606;9.988;2023-02-02T10:34:37;99472.84;;;1.71;100.00
57114;BME280;42994;51.606;9.988;2023-02-02T10:37:21;99475.13;;;1.76;100.00
57114;BME280;42994;51.606;9.988;2023-02-02T10:40:07;99478.00;;;1.72;100.00
57114;BME280;42994;51.606;9.988;2023-02-02T10:42:43;99482.69;;;1.69;100.00
57114;BME280;42994;51.606;9.988;2023-02-02T10:45:36;99487.63;;;1.73;100.00
57114;BME280;42994;51.606;9.988;2023-02-02T10:48:11;99484.97;;;1.73;100.00
57114;BME280;42994;51.606;9.988;2023-02-02T10:50:41;99490.38;;;1.72;100.00
57114;BME280;42994;51.606;9.988;2023-02-02T10:53:12;99480.75;;;1.71;100.00
57114;BME280;42994;51.606;9.988;2023-02-02T10:55:42;99491.44;;;1.69;100.00
57114;BME280;42994;51.606;9.988;2023-02-02T10:58:20;99476.09;;;1.63;100.00
57114;BME280;42994;51.606;9.988;2023-02-02T11:00:51;99487.50;;;1.64;100.00
57114;BME280;42994;51.606;9.988;2023-02-02T11:03:21;99498.94;;;1.64;100.00
57114;BME280;42994;51.606;9.988;2023-02-02T11:05:50;99498.56;;;1.58;100.00
57114;BME280;42994;51.606;9.988;2023-02-02T11:08:37;99501.81;;;1.61;100.00
57114;BME280;42994;51.606;9.988;2023-02-02T11:11:11;99505.19;;;1.52;100.00
57114;BME280;42994;51.606;9.988;2023-02-02T11:13:41;99499.03;;;1.51;100.00
57114;BME280;42994;51.606;9.988;2023-02-02T11:16:21;99505.41;;;1.49;100.00
57114;BME280;42994;51.606;9.988;2023-02-02T11:18:48;99491.25;;;1.50;100.00
57114;BME280;42994;51.606;9.988;2023-02-02T11:21:21;99499.53;;;1.45;100.00
57114;BME280;42994;51.606;9.988;2023-02-02T11:23:58;99498.31;;;1.49;100.00
57114;BME280;42994;51.606;9.988;2023-02-02T11:26:25;99508.44;;;1.44;100.00
57114;BME280;42994;51.606;9.988;2023-02-02T11:28:53;99515.78;;;1.41;100.00
57114;BME280;42994;51.606;9.988;2023-02-02T11:31:32;99525.47;;;1.40;100.00
57114;BME280;42994;51.606;9.988;2023-02-02T11:34:14;99524.28;;;1.44;100.00
57114;BME280;42994;51.606;9.988;2023-02-02T11:37:02;99527.28;;;1.40;100.00
57114;BME280;42994;51.606;9.988;2023-02-02T11:39:35;99534.13;;;1.42;100.00
57114;BME280;42994;51.606;9.988;2023-02-02T11:42:04;99529.56;;;1.44;100.00
57114;BME280;42994;51.606;9.988;2023-02-02T11:44:32;99519.34;;;1.51;100.00
57114;BME280;42994;51.606;9.988;2023-02-02T11:47:01;99517.44;;;1.42;100.00
57114;BME280;42994;51.606;9.988;2023-02-02T11:49:31;99525.00;;;1.46;100.00
57114;BME280;42994;51.606;9.988;2023-02-02T11:52:00;99520.78;;;1.44;100.00
57114;BME280;42994;51.606;9.988;2023-02-02T11:54:31;99531.59;;;1.52;100.00
57114;BME280;42994;51.606;9.988;2023-02-02T11:57:00;99528.47;;;1.47;100.00
57114;BME280;42994;51.606;9.988;2023-02-02T11:59:30;99522.00;;;1.40;100.00
57114;BME280;42994;51.606;9.988;2023-02-02T12:02:21;99526.66;;;1.47;100.00
57114;BME280;42994;51.606;9.988;2023-02-02T12:04:49;99534.84;;;1.44;100.00
57114;BME280;42994;51.606;9.988;2023-02-02T12:07:17;99533.75;;;1.47;100.00
57114;BME280;42994;51.606;9.988;2023-02-02T12:09:46;99533.41;;;1.40;100.00
57114;BME280;42994;51.606;9.988;2023-02-02T12:12:24;99523.91;;;1.49;100.00
57114;BME280;42994;51.606;9.988;2023-02-02T12:15:00;99518.41;;;1.41;100.00
57114;BME280;42994;51.606;9.988;2023-02-02T12:17:33;99522.38;;;1.46;100.00
57114;BME280;42994;51.606;9.988;2023-02-02T12:20:14;99522.97;;;1.50;100.00
57114;BME280;42994;51.606;9.988;2023-02-02T12:26:26;99507.56;;;1.55;100.00
57114;BME280;42994;51.606;9.988;2023-02-02T12:29:12;99515.03;;;1.61;100.00
57114;BME280;42994;51.606;9.988;2023-02-02T12:32:03;99521.03;;;1.52;100.00
57114;BME280;42994;51.606;9.988;2023-02-02T12:34:42;99512.41;;;1.50;100.00
57114;BME280;42994;51.606;9.988;2023-02-02T12:47:26;99527.75;;;1.56;100.00
57114;BME280;42994;51.606;9.988;2023-02-02T12:50:12;99532.66;;;1.49;100.00
57114;BME280;42994;51.606;9.988;2023-02-02T12:53:00;99535.91;;;1.53;100.00
57114;BME280;42994;51.606;9.988;2023-02-02T12:55:39;99525.84;;;1.47;100.00
57114;BME280;42994;51.606;9.988;2023-02-02T12:58:19;99532.31;;;1.54;100.00
57114;BME280;42994;51.606;9.988;2023-02-02T13:03:56;99532.31;;;1.54;100.00
57114;BME280;42994;51.606;9.988;2023-02-02T13:06:42;99535.47;;;1.48;100.00
57114;BME280;42994;51.606;9.988;2023-02-02T13:09:22;99528.13;;;1.40;100.00
57114;BME280;42994;51.606;9.988;2023-02-02T13:11:54;99533.03;;;1.45;100.00
57114;BME280;42994;51.606;9.988;2023-02-02T13:14:28;99533.28;;;1.42;100.00
57114;BME280;42994;51.606;9.988;2023-02-02T13:17:00;99538.56;;;1.42;100.00
57114;BME280;42994;51.606;9.988;2023-02-02T13:19:34;99544.94;;;1.50;100.00
57114;BME280;42994;51.606;9.988;2023-02-02T13:22:03;99547.47;;;1.52;100.00
57114;BME280;42994;51.606;9.988;2023-02-02T13:24:33;99541.91;;;1.55;100.00
57114;BME280;42994;51.606;9.988;2023-02-02T13:27:03;99537.09;;;1.60;100.00
57114;BME280;42994;51.606;9.988;2023-02-02T13:29:34;99544.09;;;1.61;100.00
57114;BME280;42994;51.606;9.988;2023-02-02T13:32:09;99542.78;;;1.56;100.00
57114;BME280;42994;51.606;9.988;2023-02-02T13:34:43;99539.75;;;1.49;100.00
57114;BME280;42994;51.606;9.988;2023-02-02T13:37:15;99550.81;;;1.54;100.00
57114;BME280;42994;51.606;9.988;2023-02-02T13:39:52;99547.19;;;1.55;100.00
57114;BME280;42994;51.606;9.988;2023-02-02T13:42:29;99550.81;;;1.54;100.00